createdAt,value
2018-05-02T00:02:06.014Z,65.60
2018-05-02T00:04:33.572Z,65.40
2018-05-02T00:07:01.102Z,65.60
2018-05-02T00:09:28.686Z,65.60
2018-05-02T00:11:56.195Z,65.70
2018-05-02T00:14:24.251Z,66.00
2018-05-02T00:16:51.732Z,66.00
2018-05-02T00:19:19.218Z,66.10
2018-05-02T00:21:46.816Z,66.10
2018-05-02T00:24:14.354Z,66.10
2018-05-02T00:26:42.244Z,66.50
2018-05-02T00:29:09.772Z,66.50
2018-05-02T00:31:37.274Z,66.50
2018-05-02T00:34:04.898Z,66.80
2018-05-02T00:36:32.349Z,67.00
2018-05-02T00:38:59.821Z,66.70
2018-05-02T00:41:27.308Z,66.70
2018-05-02T00:43:55.213Z,66.80
2018-05-02T00:46:22.737Z,66.80
2018-05-02T00:49:02.190Z,66.80
2018-05-02T00:51:29.694Z,66.70
2018-05-02T00:53:57.196Z,66.80
2018-05-02T00:56:25.194Z,66.80
2018-05-02T00:58:52.966Z,66.80
2018-05-02T01:01:20.460Z,66.90
2018-05-02T01:03:47.987Z,67.10
2018-05-02T01:06:15.532Z,67.20
2018-05-02T01:08:43.572Z,66.90
2018-05-02T01:11:11.053Z,66.90
2018-05-02T01:13:38.972Z,66.90
2018-05-02T01:16:06.633Z,66.90
2018-05-02T01:18:34.113Z,66.80
2018-05-02T01:21:01.718Z,67.10
2018-05-02T01:23:29.641Z,67.00
2018-05-02T01:25:57.394Z,67.00
2018-05-02T01:28:24.871Z,67.00
2018-05-02T01:30:52.433Z,67.20
2018-05-02T01:33:20.339Z,67.10
2018-05-02T01:35:47.937Z,67.10
2018-05-02T01:38:15.837Z,66.90
2018-05-02T01:40:43.394Z,66.90
2018-05-02T01:43:11.083Z,66.50
2018-05-02T01:45:38.607Z,66.10
2018-05-02T01:48:06.105Z,66.10
2018-05-02T01:50:33.639Z,66.60
2018-05-02T01:53:01.558Z,67.10
2018-05-02T01:55:29.327Z,67.10
2018-05-02T01:57:56.856Z,67.30
2018-05-02T02:00:24.394Z,67.30
2018-05-02T02:02:52.286Z,67.20
2018-05-02T02:05:19.806Z,67.20
2018-05-02T02:07:47.525Z,67.30
2018-05-02T02:10:15.092Z,67.40
2018-05-02T02:12:42.726Z,67.40
2018-05-02T02:15:10.613Z,67.70
2018-05-02T02:17:38.176Z,67.70
2018-05-02T02:20:06.099Z,67.90
2018-05-02T02:22:33.703Z,67.90
2018-05-02T02:25:01.890Z,67.90
2018-05-02T02:27:29.419Z,68.00
2018-05-02T02:29:56.903Z,68.10
2018-05-02T02:32:24.796Z,68.40
2018-05-02T02:34:52.405Z,68.40
2018-05-02T02:37:19.939Z,68.50
2018-05-02T02:39:47.496Z,68.60
2018-05-02T02:42:15.125Z,68.90
2018-05-02T02:44:42.620Z,69.00
2018-05-02T02:47:10.194Z,68.80
2018-05-02T02:49:37.700Z,68.70
2018-05-02T02:52:05.262Z,68.70
2018-05-02T02:54:32.890Z,68.80
2018-05-02T02:57:00.379Z,69.00
2018-05-02T02:59:27.932Z,69.00
2018-05-02T03:01:55.460Z,69.10
2018-05-02T03:04:23.023Z,69.00
2018-05-02T03:06:50.498Z,68.70
2018-05-02T03:09:18.081Z,68.80
2018-05-02T03:11:46.419Z,68.80
2018-05-02T03:14:14.314Z,69.00
2018-05-02T03:16:41.824Z,69.00
2018-05-02T03:19:09.807Z,69.00
2018-05-02T03:21:37.702Z,69.00
2018-05-02T03:24:05.721Z,69.10
2018-05-02T03:26:33.257Z,69.10
2018-05-02T03:29:00.871Z,69.20
2018-05-02T03:31:28.378Z,69.20
2018-05-02T03:33:56.044Z,69.30
2018-05-02T03:36:24.581Z,69.20
2018-05-02T03:38:52.094Z,69.20
2018-05-02T03:41:19.616Z,69.30
2018-05-02T03:43:47.092Z,69.10
2018-05-02T03:46:15.000Z,68.80
2018-05-02T03:48:42.576Z,68.80
2018-05-02T03:51:10.095Z,69.00
2018-05-02T03:53:37.667Z,68.90
2018-05-02T03:56:05.573Z,68.40
2018-05-02T03:58:33.338Z,68.40
2018-05-02T04:01:12.871Z,68.30
2018-05-02T04:03:52.388Z,68.10
2018-05-02T04:06:31.775Z,68.30
2018-05-02T04:08:59.289Z,68.50
2018-05-02T04:11:27.291Z,68.90
2018-05-02T04:13:54.824Z,68.90
2018-05-02T04:16:22.731Z,69.60
2018-05-02T04:18:50.456Z,69.60
2018-05-02T04:21:17.874Z,69.90
2018-05-02T04:23:46.377Z,70.10
2018-05-02T04:26:14.261Z,70.30
2018-05-02T04:28:42.506Z,70.30
2018-05-02T04:31:09.993Z,70.20
2018-05-02T04:33:37.479Z,70.20
2018-05-02T04:36:05.551Z,70.50
2018-05-02T04:38:33.435Z,70.00
2018-05-02T04:41:01.312Z,70.00
2018-05-02T04:43:29.150Z,69.90
2018-05-02T04:45:57.018Z,70.30
2018-05-02T04:48:24.568Z,70.30
2018-05-02T04:50:52.128Z,70.40
2018-05-02T04:53:19.583Z,70.60
2018-05-02T04:55:47.034Z,70.60
2018-05-02T04:58:14.505Z,70.50
2018-05-02T05:00:42.040Z,70.60
2018-05-02T05:03:09.517Z,70.80
2018-05-02T05:05:37.035Z,70.80
2018-05-02T05:08:04.501Z,70.70
2018-05-02T05:10:32.366Z,71.00
2018-05-02T05:13:00.298Z,71.10
2018-05-02T05:15:27.823Z,71.10
2018-05-02T05:17:55.294Z,71.30
2018-05-02T05:20:22.750Z,71.30
2018-05-02T05:22:50.231Z,71.10
2018-05-02T05:25:18.218Z,71.10
2018-05-02T05:27:45.672Z,71.10
2018-05-02T05:30:13.180Z,71.00
2018-05-02T05:32:40.632Z,71.00
2018-05-02T05:35:08.109Z,71.00
2018-05-02T05:37:35.602Z,71.00
2018-05-02T05:40:03.070Z,71.00
2018-05-02T05:42:30.540Z,70.70
2018-05-02T05:44:58.001Z,70.60
2018-05-02T05:47:25.552Z,70.60
2018-05-02T05:49:53.093Z,70.60
2018-05-02T05:52:20.953Z,70.70
2018-05-02T05:54:48.845Z,71.10
2018-05-02T05:57:16.317Z,71.10
2018-05-02T05:59:43.795Z,71.10
2018-05-02T06:02:11.600Z,70.80
2018-05-02T06:04:39.074Z,71.00
2018-05-02T06:07:06.635Z,71.00
2018-05-02T06:09:34.195Z,71.30
2018-05-02T06:12:01.673Z,70.60
2018-05-02T06:14:29.223Z,69.50
2018-05-02T06:16:56.708Z,69.60
2018-05-02T06:19:24.670Z,69.20
2018-05-02T06:21:52.149Z,69.20
2018-05-02T06:24:20.102Z,68.40
2018-05-02T06:26:47.628Z,68.40
2018-05-02T06:29:15.112Z,68.90
2018-05-02T06:31:42.619Z,68.70
2018-05-02T06:34:10.447Z,66.70
2018-05-02T06:36:38.022Z,66.80
2018-05-02T06:39:05.510Z,66.70
2018-05-02T06:41:33.368Z,65.80
2018-05-02T06:44:01.220Z,65.30
2018-05-02T06:46:28.685Z,65.30
2018-05-02T06:48:56.131Z,65.20
2018-05-02T06:51:23.668Z,65.00
2018-05-02T06:53:51.123Z,65.20
2018-05-02T06:56:18.627Z,64.30
2018-05-02T06:58:46.193Z,64.00
2018-05-02T07:01:13.654Z,64.20
2018-05-02T07:03:41.168Z,64.40
2018-05-02T07:06:08.633Z,64.30
2018-05-02T07:08:36.141Z,64.20
2018-05-02T07:11:03.617Z,63.40
2018-05-02T07:13:31.171Z,63.50
2018-05-02T07:15:59.327Z,63.20
2018-05-02T07:18:26.783Z,63.20
2018-05-02T07:20:54.229Z,62.40
2018-05-02T07:23:21.705Z,61.80
2018-05-02T07:25:49.179Z,61.90
2018-05-02T07:28:16.775Z,61.10
2018-05-02T07:30:44.231Z,61.10
2018-05-02T07:33:11.719Z,61.80
2018-05-02T07:35:39.582Z,61.60
2018-05-02T07:38:07.447Z,61.70
2018-05-02T07:40:35.009Z,61.70
2018-05-02T07:43:02.960Z,60.10
2018-05-02T07:45:30.450Z,60.10
2018-05-02T07:47:58.301Z,60.30
2018-05-02T07:50:25.768Z,60.30
2018-05-02T07:52:53.304Z,60.20
2018-05-02T07:55:20.799Z,59.40
2018-05-02T07:57:48.239Z,59.60
2018-05-02T08:00:15.819Z,59.60
2018-05-02T08:02:43.281Z,56.80
2018-05-02T08:05:10.796Z,56.70
2018-05-02T08:07:38.266Z,56.90
2018-05-02T08:10:05.731Z,57.10
2018-05-02T08:12:33.187Z,57.10
2018-05-02T08:15:00.699Z,56.50
2018-05-02T08:17:28.251Z,56.90
2018-05-02T08:19:56.190Z,57.00
2018-05-02T08:22:23.661Z,57.20
2018-05-02T08:24:51.123Z,57.00
2018-05-02T08:27:18.602Z,56.40
2018-05-02T08:29:46.127Z,56.00
2018-05-02T08:32:13.683Z,56.70
2018-05-02T08:34:41.470Z,56.60
2018-05-02T08:37:08.937Z,56.00
2018-05-02T08:39:36.471Z,54.70
2018-05-02T08:42:04.364Z,55.00
2018-05-02T08:44:31.925Z,55.00
2018-05-02T08:46:59.632Z,54.40
2018-05-02T08:49:27.203Z,53.00
2018-05-02T08:51:54.688Z,52.40
2018-05-02T08:54:24.251Z,51.80
2018-05-02T08:56:51.713Z,51.80
2018-05-02T08:59:19.173Z,51.20
2018-05-02T09:01:46.705Z,52.10
2018-05-02T09:04:14.246Z,51.80
2018-05-02T09:06:42.232Z,48.50
2018-05-02T09:09:09.677Z,48.50
2018-05-02T09:11:38.205Z,48.30
2018-05-02T09:14:05.687Z,48.60
2018-05-02T09:16:33.152Z,48.50
2018-05-02T09:19:00.684Z,47.60
2018-05-02T09:21:28.220Z,47.30
2018-05-02T09:23:56.259Z,47.50
2018-05-02T09:26:23.879Z,47.50
2018-05-02T09:28:51.822Z,47.00
2018-05-02T09:31:19.354Z,47.00
2018-05-02T09:33:46.830Z,46.80
2018-05-02T09:36:14.335Z,46.20
2018-05-02T09:38:41.884Z,46.10
2018-05-02T09:41:09.793Z,46.70
2018-05-02T09:43:37.443Z,46.70
2018-05-02T09:46:04.981Z,46.40
2018-05-02T09:48:32.769Z,46.40
2018-05-02T09:51:00.237Z,45.80
2018-05-02T09:53:27.767Z,46.10
2018-05-02T09:55:55.361Z,46.30
2018-05-02T09:58:22.835Z,46.60
2018-05-02T10:00:50.312Z,45.50
2018-05-02T10:03:17.779Z,45.50
2018-05-02T10:05:45.293Z,46.00
2018-05-02T10:08:13.250Z,45.40
2018-05-02T10:10:40.812Z,45.40
2018-05-02T10:13:08.295Z,45.30
2018-05-02T10:15:36.171Z,45.30
2018-05-02T10:18:04.022Z,44.80
2018-05-02T10:20:32.513Z,44.80
2018-05-02T10:22:59.988Z,44.50
2018-05-02T10:25:27.963Z,44.10
2018-05-02T10:27:55.933Z,44.20
2018-05-02T10:30:23.890Z,44.80
2018-05-02T10:32:51.621Z,44.80
2018-05-02T10:35:19.120Z,43.80
2018-05-02T10:37:46.585Z,43.00
2018-05-02T10:40:14.053Z,43.10
2018-05-02T10:42:41.615Z,43.70
2018-05-02T10:45:09.078Z,43.70
2018-05-02T10:47:36.936Z,43.40
2018-05-02T10:52:37.915Z,43.90
2018-05-02T10:55:07.166Z,43.20
2018-05-02T10:57:35.057Z,43.20
2018-05-02T11:00:02.733Z,43.70
2018-05-02T11:02:30.262Z,42.80
2018-05-02T11:04:57.854Z,42.30
2018-05-02T11:07:25.399Z,42.00
2018-05-02T11:09:53.002Z,41.70
2018-05-02T11:12:20.561Z,43.20
2018-05-02T11:14:48.128Z,43.00
2018-05-02T11:17:15.692Z,43.20
2018-05-02T11:19:43.274Z,43.90
2018-05-02T11:22:11.338Z,43.20
2018-05-02T11:24:38.957Z,43.20
2018-05-02T11:27:06.484Z,44.60
2018-05-02T11:29:34.503Z,43.80
2018-05-02T11:32:02.067Z,43.80
2018-05-02T11:34:29.608Z,43.70
2018-05-02T11:36:57.137Z,43.30
2018-05-02T11:39:25.137Z,44.10
2018-05-02T11:41:53.053Z,43.70
2018-05-02T11:44:20.699Z,43.70
2018-05-02T11:46:48.297Z,44.10
2018-05-02T11:49:15.826Z,44.40
2018-05-02T11:51:43.387Z,43.70
2018-05-02T11:54:10.942Z,43.80
2018-05-02T11:56:38.479Z,44.40
2018-05-02T11:59:06.417Z,43.90
2018-05-02T12:01:33.980Z,43.90
2018-05-02T12:04:01.528Z,42.90
2018-05-02T12:06:31.111Z,42.50
2018-05-02T12:08:58.652Z,42.20
2018-05-02T12:11:26.285Z,42.00
2018-05-02T12:13:53.833Z,41.60
2018-05-02T12:16:21.384Z,42.50
2018-05-02T12:18:48.932Z,42.50
2018-05-02T12:21:16.471Z,42.10
2018-05-02T12:23:44.032Z,40.40
2018-05-02T12:26:11.841Z,40.80
2018-05-02T12:28:39.400Z,40.60
2018-05-02T12:31:06.951Z,40.40
2018-05-02T12:33:35.823Z,40.20
2018-05-02T12:36:03.835Z,39.60
2018-05-02T12:38:31.383Z,39.60
2018-05-02T12:40:59.332Z,40.30
2018-05-02T12:43:26.952Z,40.30
2018-05-02T12:45:54.466Z,40.20
2018-05-02T12:48:22.035Z,40.50
2018-05-02T12:50:49.988Z,40.70
2018-05-02T12:53:17.580Z,40.70
2018-05-02T12:55:45.572Z,41.10
2018-05-02T12:58:13.482Z,41.40
2018-05-02T13:00:41.079Z,41.40
2018-05-02T13:03:08.694Z,40.30
2018-05-02T13:05:36.278Z,39.70
2018-05-02T13:08:03.805Z,39.80
2018-05-02T13:10:31.359Z,39.50
2018-05-02T13:12:59.044Z,39.50
2018-05-02T13:15:26.571Z,39.50
2018-05-02T13:17:54.538Z,39.90
2018-05-02T13:20:22.246Z,39.90
2018-05-02T13:22:49.782Z,39.00
2018-05-02T13:25:18.556Z,39.40
2018-05-02T13:27:46.107Z,39.40
2018-05-02T13:30:13.635Z,38.90
2018-05-02T13:32:41.202Z,40.10
2018-05-02T13:35:08.779Z,40.20
2018-05-02T13:37:36.383Z,40.10
2018-05-02T13:40:03.942Z,39.30
2018-05-02T13:42:31.590Z,38.90
2018-05-02T13:44:59.161Z,38.70
2018-05-02T13:47:26.684Z,39.00
2018-05-02T13:49:54.270Z,38.40
2018-05-02T13:52:21.838Z,38.20
2018-05-02T13:54:49.399Z,37.70
2018-05-02T13:57:16.962Z,37.50
2018-05-02T13:59:44.537Z,37.60
2018-05-02T14:02:12.103Z,37.40
2018-05-02T14:04:39.623Z,37.00
2018-05-02T14:07:07.076Z,37.30
2018-05-02T14:09:34.960Z,39.30
2018-05-02T14:12:02.438Z,39.30
2018-05-02T14:14:30.077Z,38.70
2018-05-02T14:16:58.048Z,38.00
2018-05-02T14:19:25.916Z,38.20
2018-05-02T14:21:53.776Z,37.90
2018-05-02T14:24:21.254Z,37.90
2018-05-02T14:26:49.161Z,38.20
2018-05-02T14:29:16.684Z,38.20
2018-05-02T14:31:44.535Z,38.00
2018-05-02T14:34:12.009Z,38.10
2018-05-02T14:36:39.465Z,39.40
2018-05-02T14:39:07.001Z,39.40
2018-05-02T14:41:34.486Z,39.60
2018-05-02T14:44:01.996Z,40.00
2018-05-02T14:46:29.480Z,38.40
2018-05-02T14:48:56.944Z,37.30
2018-05-02T14:51:24.479Z,37.10
2018-05-02T14:53:51.985Z,37.30
2018-05-02T14:56:19.517Z,37.20
2018-05-02T14:58:47.013Z,37.20
2018-05-02T15:01:15.548Z,38.20
2018-05-02T15:03:43.061Z,39.10
2018-05-02T15:06:10.523Z,38.20
2018-05-02T15:08:38.004Z,38.20
2018-05-02T15:11:05.467Z,38.20
2018-05-02T15:13:33.057Z,38.20
2018-05-02T15:16:01.008Z,38.10
2018-05-02T15:18:28.573Z,38.10
2018-05-02T15:20:56.042Z,37.60
2018-05-02T15:23:23.589Z,37.60
2018-05-02T15:25:51.051Z,37.80
2018-05-02T15:28:19.053Z,37.90
2018-05-02T15:30:47.014Z,37.80
2018-05-02T15:33:14.876Z,39.10
2018-05-02T15:35:42.333Z,39.10
2018-05-02T15:38:09.904Z,40.00
2018-05-02T15:40:37.436Z,39.40
2018-05-02T15:43:04.913Z,38.30
2018-05-02T15:45:32.365Z,37.90
2018-05-02T15:47:59.947Z,38.20
2018-05-02T15:50:27.825Z,38.30
2018-05-02T15:52:55.370Z,38.30
2018-05-02T15:55:22.842Z,39.90
2018-05-02T15:57:51.073Z,38.10
2018-05-02T16:00:18.568Z,38.30
2018-05-02T16:02:46.077Z,38.30
2018-05-02T16:05:14.032Z,38.50
2018-05-02T16:07:41.514Z,38.50
2018-05-02T16:10:09.369Z,38.60
2018-05-02T16:12:36.849Z,38.60
2018-05-02T16:15:04.705Z,38.60
2018-05-02T16:17:32.260Z,38.60
2018-05-02T16:19:59.720Z,38.50
2018-05-02T16:22:27.611Z,40.30
2018-05-02T16:24:55.473Z,40.70
2018-05-02T16:27:23.430Z,40.80
2018-05-02T16:29:51.308Z,40.40
2018-05-02T16:32:18.799Z,40.40
2018-05-02T16:34:46.754Z,40.80
2018-05-02T16:37:14.327Z,40.80
2018-05-02T16:39:41.808Z,39.90
2018-05-02T16:42:09.329Z,39.10
2018-05-02T16:44:36.799Z,39.60
2018-05-02T16:47:04.294Z,39.90
2018-05-02T16:49:32.160Z,39.80
2018-05-02T16:52:00.111Z,39.20
2018-05-02T16:54:27.648Z,39.20
2018-05-02T16:56:55.113Z,39.10
2018-05-02T16:59:22.648Z,39.70
2018-05-02T17:01:50.105Z,40.20
2018-05-02T17:04:17.759Z,40.60
2018-05-02T17:06:45.184Z,39.40
2018-05-02T17:09:12.668Z,39.30
2018-05-02T17:11:40.570Z,40.60
2018-05-02T17:14:08.052Z,40.60
2018-05-02T17:16:35.517Z,40.60
2018-05-02T17:19:02.998Z,41.10
2018-05-02T17:21:30.580Z,41.20
2018-05-02T17:23:58.056Z,40.60
2018-05-02T17:26:25.908Z,41.10
2018-05-02T17:28:53.391Z,41.10
2018-05-02T17:31:21.265Z,41.90
2018-05-02T17:33:49.202Z,41.80
2018-05-02T17:36:16.725Z,41.80
2018-05-02T17:38:44.248Z,41.70
2018-05-02T17:41:11.695Z,41.70
2018-05-02T17:43:39.235Z,42.20
2018-05-02T17:46:06.702Z,43.10
2018-05-02T17:48:34.184Z,43.00
2018-05-02T17:51:01.762Z,43.20
2018-05-02T17:53:29.242Z,43.70
2018-05-02T17:55:57.168Z,44.10
2018-05-02T17:58:24.674Z,44.10
2018-05-02T18:00:52.525Z,44.10
2018-05-02T18:03:20.001Z,44.10
2018-05-02T18:05:47.471Z,44.30
2018-05-02T18:08:15.322Z,44.80
2018-05-02T18:10:42.780Z,44.70
2018-05-02T18:13:10.254Z,45.40
2018-05-02T18:15:37.737Z,45.60
2018-05-02T18:18:05.265Z,45.80
2018-05-02T18:20:32.717Z,46.20
2018-05-02T18:23:00.206Z,46.50
2018-05-02T18:25:27.702Z,46.80
2018-05-02T18:27:55.167Z,47.20
2018-05-02T18:30:22.666Z,48.10
2018-05-02T18:32:50.215Z,49.00
2018-05-02T18:35:17.961Z,49.00
2018-05-02T18:37:45.465Z,49.50
2018-05-02T18:40:12.997Z,50.00
2018-05-02T18:42:40.491Z,50.50
2018-05-02T18:45:08.049Z,50.80
2018-05-02T18:47:35.621Z,51.10
2018-05-02T18:50:03.128Z,51.50
2018-05-02T18:52:31.000Z,52.80
2018-05-02T18:54:58.545Z,52.70
2018-05-02T18:57:26.478Z,52.80
2018-05-02T18:59:54.280Z,52.80
2018-05-02T19:02:22.205Z,53.40
2018-05-02T19:04:49.693Z,53.40
2018-05-02T19:07:17.185Z,53.80
2018-05-02T19:09:45.102Z,54.20
2018-05-02T19:12:12.629Z,54.20
2018-05-02T19:14:40.611Z,55.00
2018-05-02T19:17:08.095Z,55.00
2018-05-02T19:19:41.352Z,55.20
2018-05-02T19:22:09.309Z,55.60
2018-05-02T19:24:42.660Z,55.60
2018-05-02T19:27:11.091Z,55.80
2018-05-02T19:29:38.654Z,55.80
2018-05-02T19:32:12.503Z,55.40
2018-05-02T19:34:40.379Z,54.80
2018-05-02T19:37:07.851Z,54.60
2018-05-02T19:39:41.078Z,54.70
2018-05-02T19:42:14.355Z,54.90
2018-05-02T19:44:41.923Z,55.30
2018-05-02T19:47:09.418Z,55.40
2018-05-02T19:49:36.884Z,55.60
2018-05-02T19:52:10.437Z,56.50
2018-05-02T19:54:37.946Z,56.50
2018-05-02T19:57:05.534Z,56.70
2018-05-02T19:59:33.063Z,56.60
2018-05-02T20:02:06.178Z,56.60
2018-05-02T20:04:34.049Z,56.40
2018-05-02T20:07:01.950Z,56.50
2018-05-02T20:09:34.984Z,56.50
2018-05-02T20:12:08.458Z,56.40
2018-05-02T20:14:35.993Z,57.00
2018-05-02T20:17:04.197Z,57.40
2018-05-02T20:22:06.601Z,57.10
2018-05-02T20:24:34.556Z,57.20
2018-05-02T20:27:02.097Z,57.50
2018-05-02T20:29:29.648Z,58.00
2018-05-02T20:31:57.124Z,58.30
2018-05-02T20:34:24.629Z,58.30
2018-05-02T20:36:52.141Z,58.60
2018-05-02T20:39:20.035Z,58.60
2018-05-02T20:41:47.690Z,58.50
2018-05-02T20:44:15.590Z,58.60
2018-05-02T20:46:43.784Z,58.60
2018-05-02T20:49:11.235Z,59.00
2018-05-02T20:51:38.683Z,58.90
2018-05-02T20:54:06.179Z,58.50
2018-05-02T20:56:33.633Z,58.90
2018-05-02T20:59:01.078Z,59.10
2018-05-02T21:01:28.542Z,59.20
2018-05-02T21:03:55.991Z,59.00
2018-05-02T21:06:23.512Z,58.40
2018-05-02T21:08:50.951Z,58.20
2018-05-02T21:11:18.391Z,58.90
2018-05-02T21:13:46.233Z,59.70
2018-05-02T21:16:13.703Z,59.70
2018-05-02T21:18:41.187Z,59.60
2018-05-02T21:21:08.638Z,59.10
2018-05-02T21:23:36.469Z,59.60
2018-05-02T21:26:03.926Z,59.60
2018-05-02T21:28:31.395Z,59.90
2018-05-02T21:30:58.927Z,59.40
2018-05-02T21:33:26.343Z,58.80
2018-05-02T21:35:53.829Z,57.80
2018-05-02T21:38:21.291Z,58.30
2018-05-02T21:40:48.885Z,58.90
2018-05-02T21:43:16.810Z,58.60
2018-05-02T21:45:44.928Z,58.60
2018-05-02T21:48:12.713Z,58.80
2018-05-02T21:50:40.208Z,59.20
2018-05-02T21:53:07.679Z,58.40
2018-05-02T21:55:35.119Z,58.50
2018-05-02T21:58:02.554Z,59.40
2018-05-02T22:00:30.058Z,59.60
2018-05-02T22:02:57.502Z,59.40
2018-05-02T22:05:25.030Z,60.00
2018-05-02T22:07:52.482Z,60.20
2018-05-02T22:10:19.931Z,60.20
2018-05-02T22:12:47.397Z,60.40
2018-05-02T22:15:14.858Z,60.20
2018-05-02T22:17:42.291Z,60.40
2018-05-02T22:20:09.759Z,60.40
2018-05-02T22:22:37.219Z,60.40
2018-05-02T22:25:04.831Z,60.70
2018-05-02T22:27:32.683Z,60.90
2018-05-02T22:30:00.127Z,60.90
2018-05-02T22:32:27.627Z,61.00
2018-05-02T22:34:55.066Z,60.90
2018-05-02T22:37:22.507Z,61.30
2018-05-02T22:39:49.945Z,61.30
2018-05-02T22:42:17.386Z,61.80
2018-05-02T22:44:44.878Z,61.50
2018-05-02T22:47:12.338Z,61.50
2018-05-02T22:49:39.779Z,61.50
2018-05-02T22:52:07.235Z,60.90
2018-05-02T22:54:34.680Z,60.90
2018-05-02T22:57:02.175Z,61.20
2018-05-02T22:59:29.613Z,61.30
2018-05-02T23:01:57.058Z,61.50
2018-05-02T23:04:24.498Z,61.80
2018-05-02T23:06:51.947Z,61.70
2018-05-02T23:09:19.430Z,61.40
2018-05-02T23:11:46.875Z,61.30
2018-05-02T23:14:14.332Z,61.80
2018-05-02T23:16:41.775Z,62.10
2018-05-02T23:19:09.250Z,61.70
2018-05-02T23:21:36.746Z,61.70
2018-05-02T23:24:04.600Z,61.50
2018-05-02T23:26:32.045Z,61.50
2018-05-02T23:28:59.486Z,61.90
2018-05-02T23:31:26.921Z,62.10
2018-05-02T23:33:54.427Z,61.90
2018-05-02T23:36:21.874Z,61.70
2018-05-02T23:38:49.322Z,61.70
2018-05-02T23:41:16.787Z,61.60
2018-05-02T23:43:44.228Z,61.30
2018-05-02T23:46:11.690Z,61.40
2018-05-02T23:48:39.167Z,61.10
2018-05-02T23:51:06.623Z,61.60
2018-05-02T23:53:34.067Z,61.90
2018-05-02T23:56:01.512Z,62.10
2018-05-02T23:58:29.009Z,62.00
